Time;durP1;ratioP1;P1;durP2;ratioP2;P2;SDS_P1;SDS_P2;PMS_P1;PMS_P2;Temp;Humidity;BMP_temperature;BMP_pressure;BME280_temperature;BME280_humidity;BME280_pressure;Samples;Min_cycle;Max_cycle;Signal;HPM_P1;HPM_P2
2023/06/20 00:00:28;;;;;;;5.60;3.60;;;;;;;;;;4993368;28;20026;-77
2023/06/20 00:02:54;;;;;;;5.70;3.95;;;;;;;;;;5000574;28;20034;-77
2023/06/20 00:05:20;;;;;;;9.95;4.47;;;;;;;;;;5002515;28;20046;-77
2023/06/20 00:07:46;;;;;;;5.38;3.83;;;;;;;;;;5007537;28;20018;-77
2023/06/20 00:10:12;;;;;;;5.35;3.97;;;;;;;;;;5004974;28;20091;-77
2023/06/20 00:12:40;;;;;;;5.63;3.47;;;;;;;;;;4990378;28;20018;-76
2023/06/20 00:15:06;;;;;;;5.50;3.60;;;;;;;;;;4993491;28;21193;-77
2023/06/20 00:17:36;;;;;;;4.75;3.38;;;;;;;;;;5004357;28;20034;-77
2023/06/20 00:20:05;;;;;;;6.82;4.30;;;;;;;;;;4998641;28;20393;-77
2023/06/20 00:22:34;;;;;;;5.72;3.95;;;;;;;;;;4985632;28;20512;-77
2023/06/20 00:25:02;;;;;;;7.22;3.75;;;;;;;;;;4989983;28;20034;-77
2023/06/20 00:27:28;;;;;;;6.55;3.88;;;;;;;;;;5007900;28;20025;-77
2023/06/20 00:29:54;;;;;;;6.35;3.42;;;;;;;;;;4984590;28;20884;-76
2023/06/20 00:32:20;;;;;;;6.38;4.13;;;;;;;;;;4993391;28;20081;-77
2023/06/20 00:34:48;;;;;;;5.88;4.00;;;;;;;;;;5001845;28;20037;-77
2023/06/20 00:37:14;;;;;;;4.82;3.70;;;;;;;;;;4999857;28;20022;-76
2023/06/20 00:39:40;;;;;;;5.32;3.50;;;;;;;;;;4990725;28;20030;-77
2023/06/20 00:42:16;;;;;;;6.68;3.88;;;;;;;;;;4999974;28;20041;-77
2023/06/20 00:44:42;;;;;;;5.75;3.70;;;;;;;;;;5007853;28;20033;-77
2023/06/20 00:47:08;;;;;;;6.25;3.92;;;;;;;;;;4999014;28;20034;-77
2023/06/20 00:49:34;;;;;;;5.20;3.67;;;;;;;;;;5007471;28;20473;-77
2023/06/20 00:52:02;;;;;;;6.28;3.88;;;;;;;;;;4995610;28;20050;-77
2023/06/20 00:54:28;;;;;;;6.03;4.32;;;;;;;;;;4998876;28;20115;-77
2023/06/20 00:56:54;;;;;;;6.82;4.10;;;;;;;;;;5000535;28;20433;-77
2023/06/20 00:59:20;;;;;;;6.38;3.63;;;;;;;;;;4998559;28;20472;-77
2023/06/20 01:01:46;;;;;;;5.35;3.92;;;;;;;;;;5005076;28;20075;-77
2023/06/20 01:04:12;;;;;;;4.97;3.28;;;;;;;;;;5010071;28;20044;-77
2023/06/20 01:06:42;;;;;;;6.30;4.10;;;;;;;;;;5012206;28;20093;-77
2023/06/20 01:09:23;;;;;;;4.90;3.50;;;;;;;;;;5007603;28;20022;-77
2023/06/20 01:11:55;;;;;;;5.07;3.90;;;;;;;;;;5012220;28;20030;-77
2023/06/20 01:14:40;;;;;;;5.95;3.58;;;;;;;;;;5000435;28;20103;-77
2023/06/20 01:17:10;;;;;;;5.80;3.78;;;;;;;;;;5010600;28;20026;-77
2023/06/20 01:20:12;;;;;;;7.25;4.15;;;;;;;;;;5011904;28;20022;-76
2023/06/20 01:22:41;;;;;;;6.65;4.07;;;;;;;;;;5004126;28;20109;-77
2023/06/20 01:25:10;;;;;;;5.90;4.10;;;;;;;;;;4996902;28;20522;-77
2023/06/20 01:27:38;;;;;;;5.18;3.85;;;;;;;;;;4999317;28;20045;-77
2023/06/20 01:30:10;;;;;;;8.20;3.75;;;;;;;;;;5004653;28;20040;-77
2023/06/20 01:32:46;;;;;;;6.75;3.92;;;;;;;;;;4994191;28;20154;-77
2023/06/20 01:35:15;;;;;;;5.50;3.88;;;;;;;;;;5004017;28;20737;-77
2023/06/20 01:37:42;;;;;;;4.95;3.50;;;;;;;;;;5003501;28;20482;-77
2023/06/20 01:40:10;;;;;;;5.80;3.97;;;;;;;;;;5003967;28;20172;-77
2023/06/20 01:42:36;;;;;;;6.68;3.88;;;;;;;;;;4997861;28;20037;-77
2023/06/20 01:45:05;;;;;;;5.88;4.00;;;;;;;;;;5005659;28;20030;-77
2023/06/20 01:47:32;;;;;;;4.68;3.15;;;;;;;;;;5002791;28;20041;-77
2023/06/20 01:49:59;;;;;;;6.00;4.05;;;;;;;;;;5002796;28;20026;-76
2023/06/20 01:52:26;;;;;;;6.22;4.03;;;;;;;;;;5007342;28;20049;-77
2023/06/20 01:54:52;;;;;;;5.68;3.80;;;;;;;;;;4996739;28;20030;-76
2023/06/20 01:57:20;;;;;;;7.47;3.20;;;;;;;;;;5001970;28;20112;-77
2023/06/20 01:59:46;;;;;;;5.13;3.53;;;;;;;;;;4997707;28;20025;-76
2023/06/20 02:02:12;;;;;;;5.78;3.53;;;;;;;;;;5006706;28;20080;-77
2023/06/20 02:04:38;;;;;;;6.25;3.80;;;;;;;;;;4997314;28;20037;-76
2023/06/20 02:07:05;;;;;;;6.30;3.40;;;;;;;;;;5001735;28;20067;-77
2023/06/20 02:09:31;;;;;;;5.43;3.90;;;;;;;;;;5003890;28;20472;-76
2023/06/20 02:11:58;;;;;;;5.82;3.72;;;;;;;;;;5000742;28;20034;-76
2023/06/20 02:14:25;;;;;;;4.82;3.30;;;;;;;;;;4998167;28;20084;-77
2023/06/20 02:16:52;;;;;;;8.60;3.83;;;;;;;;;;5007174;28;20018;-76
2023/06/20 02:19:18;;;;;;;5.10;3.67;;;;;;;;;;5007833;28;20030;-77
2023/06/20 02:21:45;;;;;;;6.70;3.97;;;;;;;;;;4994920;28;20113;-77
2023/06/20 02:24:13;;;;;;;8.18;4.07;;;;;;;;;;5006565;28;20186;-76
2023/06/20 02:26:40;;;;;;;6.05;4.32;;;;;;;;;;5005486;28;20466;-77
2023/06/20 02:29:07;;;;;;;6.00;4.03;;;;;;;;;;5007842;28;20034;-77
2023/06/20 02:31:35;;;;;;;7.03;4.05;;;;;;;;;;5010740;28;20473;-76
2023/06/20 02:34:05;;;;;;;6.03;3.95;;;;;;;;;;5000197;28;20480;-76
2023/06/20 02:36:32;;;;;;;6.43;3.72;;;;;;;;;;5008076;28;20499;-77
2023/06/20 02:38:58;;;;;;;6.78;4.78;;;;;;;;;;4998073;28;20125;-77
2023/06/20 02:41:24;;;;;;;6.75;4.00;;;;;;;;;;5005024;28;20062;-77
2023/06/20 02:43:51;;;;;;;6.35;3.70;;;;;;;;;;4996818;28;20125;-77
2023/06/20 02:46:16;;;;;;;5.70;3.95;;;;;;;;;;5004744;28;20374;-76
2023/06/20 02:48:53;;;;;;;5.50;3.75;;;;;;;;;;4999571;28;20029;-77
2023/06/20 02:51:30;;;;;;;5.15;3.80;;;;;;;;;;5005563;28;20022;-76
2023/06/20 02:54:07;;;;;;;4.93;3.45;;;;;;;;;;4993769;28;20776;-76
2023/06/20 02:56:36;;;;;;;6.00;4.07;;;;;;;;;;5005529;28;20033;-77
2023/06/20 02:59:02;;;;;;;8.65;3.92;;;;;;;;;;4998671;28;20029;-77
2023/06/20 03:01:32;;;;;;;5.55;3.45;;;;;;;;;;5001483;28;20030;-77
2023/06/20 03:03:59;;;;;;;5.93;3.45;;;;;;;;;;4997907;28;20042;-76
2023/06/20 03:06:29;;;;;;;5.82;4.00;;;;;;;;;;4997027;28;20052;-76
2023/06/20 03:08:56;;;;;;;5.50;3.95;;;;;;;;;;5004883;28;20025;-77
2023/06/20 03:11:22;;;;;;;4.50;3.53;;;;;;;;;;4994995;28;20053;-76
2023/06/20 03:13:48;;;;;;;4.93;3.83;;;;;;;;;;5004377;28;20050;-76
2023/06/20 03:16:14;;;;;;;5.20;3.40;;;;;;;;;;5000045;28;20034;-77
2023/06/20 03:18:41;;;;;;;6.80;4.32;;;;;;;;;;5008941;28;20062;-77
2023/06/20 03:21:06;;;;;;;6.63;4.18;;;;;;;;;;4991038;28;20079;-76
2023/06/20 03:23:33;;;;;;;3.83;3.40;;;;;;;;;;4999011;28;20018;-76
2023/06/20 03:25:59;;;;;;;5.45;3.53;;;;;;;;;;4992109;28;20060;-77
2023/06/20 03:28:25;;;;;;;5.38;3.60;;;;;;;;;;4993622;28;20014;-77
2023/06/20 03:30:52;;;;;;;5.32;3.50;;;;;;;;;;4996221;28;20089;-76
2023/06/20 03:33:18;;;;;;;5.93;3.65;;;;;;;;;;5000425;28;20040;-76
2023/06/20 03:35:50;;;;;;;5.22;3.70;;;;;;;;;;5006270;28;20022;-76
2023/06/20 03:38:16;;;;;;;5.70;3.78;;;;;;;;;;5001698;28;20030;-77
2023/06/20 03:40:42;;;;;;;5.28;3.58;;;;;;;;;;5008960;28;20022;-76
2023/06/20 03:43:08;;;;;;;6.18;3.97;;;;;;;;;;4998264;28;20470;-77
2023/06/20 03:45:34;;;;;;;5.68;4.32;;;;;;;;;;5001019;28;20037;-77
2023/06/20 03:48:00;;;;;;;5.60;3.95;;;;;;;;;;5002988;28;20103;-77
2023/06/20 03:50:26;;;;;;;6.30;4.20;;;;;;;;;;5006958;28;20017;-76
2023/06/20 03:52:52;;;;;;;8.40;4.57;;;;;;;;;;4998047;28;20408;-76
2023/06/20 03:55:18;;;;;;;5.93;3.95;;;;;;;;;;5000431;28;20026;-76
2023/06/20 03:57:44;;;;;;;8.38;4.57;;;;;;;;;;5005250;28;20553;-76
2023/06/20 04:00:12;;;;;;;7.00;4.70;;;;;;;;;;5005059;28;20539;-76
2023/06/20 04:02:41;;;;;;;6.15;3.88;;;;;;;;;;4996672;28;20033;-77
2023/06/20 04:05:08;;;;;;;6.30;3.75;;;;;;;;;;4994693;28;20034;-76
2023/06/20 04:07:34;;;;;;;7.35;4.32;;;;;;;;;;5001750;28;20037;-76
2023/06/20 04:10:00;;;;;;;5.38;3.75;;;;;;;;;;4997562;28;20504;-76
2023/06/20 04:12:26;;;;;;;6.78;4.28;;;;;;;;;;4997587;28;20508;-77
2023/06/20 04:14:53;;;;;;;5.63;3.75;;;;;;;;;;4999354;28;20030;-77
2023/06/20 04:17:19;;;;;;;6.18;4.05;;;;;;;;;;4999679;28;20026;-78
2023/06/20 04:19:45;;;;;;;6.20;4.35;;;;;;;;;;5001315;28;20085;-77
2023/06/20 04:22:12;;;;;;;6.40;4.38;;;;;;;;;;4991792;28;20077;-77
2023/06/20 04:24:38;;;;;;;5.90;4.32;;;;;;;;;;5008059;28;20026;-77
2023/06/20 04:27:04;;;;;;;6.80;4.32;;;;;;;;;;5005465;28;20088;-77
2023/06/20 04:29:30;;;;;;;7.28;4.60;;;;;;;;;;4999129;28;20034;-77
2023/06/20 04:31:56;;;;;;;7.75;3.80;;;;;;;;;;4995673;28;20144;-77
2023/06/20 04:34:24;;;;;;;5.80;4.05;;;;;;;;;;5006356;28;20122;-77
2023/06/20 04:36:51;;;;;;;7.15;4.53;;;;;;;;;;4988162;28;20022;-77
2023/06/20 04:39:17;;;;;;;6.13;4.20;;;;;;;;;;4993973;28;20597;-77
2023/06/20 04:41:43;;;;;;;5.72;4.28;;;;;;;;;;4987952;28;20066;-77
2023/06/20 04:44:09;;;;;;;6.32;4.22;;;;;;;;;;4998609;28;20034;-77
2023/06/20 04:46:34;;;;;;;7.78;4.28;;;;;;;;;;5007608;28;20080;-77
2023/06/20 04:49:00;;;;;;;6.60;4.13;;;;;;;;;;5007083;28;20029;-78
2023/06/20 04:51:27;;;;;;;6.30;4.05;;;;;;;;;;4996209;28;20477;-77
2023/06/20 04:53:53;;;;;;;7.43;4.07;;;;;;;;;;5000324;28;20366;-77
2023/06/20 04:56:19;;;;;;;4.60;3.65;;;;;;;;;;5007974;28;20030;-77
2023/06/20 04:58:46;;;;;;;5.32;3.90;;;;;;;;;;4999721;28;20440;-77
2023/06/20 05:01:14;;;;;;;6.80;4.72;;;;;;;;;;5003047;28;20398;-76
2023/06/20 05:03:40;;;;;;;7.57;4.60;;;;;;;;;;4990562;28;20033;-75
2023/06/20 05:06:06;;;;;;;8.05;4.43;;;;;;;;;;5003329;28;20050;-76
2023/06/20 05:08:32;;;;;;;8.50;4.80;;;;;;;;;;5005873;28;20033;-78
2023/06/20 05:10:58;;;;;;;6.88;4.20;;;;;;;;;;5008310;28;20042;-78
2023/06/20 05:13:30;;;;;;;6.82;4.20;;;;;;;;;;5000754;28;20066;-78
2023/06/20 05:15:56;;;;;;;;;;;;;;;;;;5005292;28;20029;-79
2023/06/20 05:18:22;;;;;;;6.60;4.50;;;;;;;;;;5004186;28;19951;-79
2023/06/20 05:20:48;;;;;;;7.95;5.00;;;;;;;;;;4997188;28;20030;-87
2023/06/20 05:23:14;;;;;;;7.72;4.47;;;;;;;;;;5005621;28;20533;-87
2023/06/20 05:25:40;;;;;;;9.30;5.32;;;;;;;;;;5001745;28;20041;-87
2023/06/20 05:28:06;;;;;;;9.07;5.55;;;;;;;;;;5000060;28;20413;-82
2023/06/20 05:30:32;;;;;;;8.63;5.25;;;;;;;;;;5004536;28;20450;-88
2023/06/20 05:32:58;;;;;;;7.65;4.75;;;;;;;;;;5002086;28;20421;-88
2023/06/20 05:35:26;;;;;;;7.90;5.43;;;;;;;;;;4989886;28;20814;-81
2023/06/20 05:40:45;;;;;;;8.77;5.20;;;;;;;;;;5001229;28;20038;-80
2023/06/20 05:43:11;;;;;;;7.32;5.03;;;;;;;;;;5011396;28;20029;-81
2023/06/20 05:45:37;;;;;;;9.63;4.75;;;;;;;;;;5009174;28;20476;-81
2023/06/20 05:48:03;;;;;;;6.93;5.05;;;;;;;;;;5005385;28;20029;-80
2023/06/20 05:50:32;;;;;;;7.60;4.82;;;;;;;;;;5011678;28;20116;-81
2023/06/20 05:52:59;;;;;;;7.65;5.47;;;;;;;;;;4999390;28;20135;-83
2023/06/20 05:55:25;;;;;;;7.85;5.00;;;;;;;;;;5011278;28;20429;-82
2023/06/20 05:57:51;;;;;;;7.22;4.55;;;;;;;;;;5009161;28;20088;-80
2023/06/20 06:00:17;;;;;;;7.60;5.07;;;;;;;;;;5011253;28;20022;-80
2023/06/20 06:02:46;;;;;;;6.43;4.57;;;;;;;;;;5024572;28;20115;-80
2023/06/20 06:05:12;;;;;;;6.55;4.32;;;;;;;;;;5010888;28;20436;-80
2023/06/20 06:07:38;;;;;;;7.60;4.90;;;;;;;;;;5004287;28;20026;-80
2023/06/20 06:10:07;;;;;;;8.63;5.55;;;;;;;;;;4996803;28;20065;-80
2023/06/20 06:12:34;;;;;;;9.90;5.38;;;;;;;;;;5005951;28;20022;-80
2023/06/20 06:15:00;;;;;;;8.38;5.55;;;;;;;;;;5003906;28;20132;-81
2023/06/20 06:17:26;;;;;;;8.32;5.40;;;;;;;;;;5008063;28;20465;-80
2023/06/20 06:19:52;;;;;;;7.85;5.45;;;;;;;;;;5005873;28;20062;-81
2023/06/20 06:22:20;;;;;;;7.90;4.97;;;;;;;;;;5006320;28;20038;-80
2023/06/20 06:24:46;;;;;;;6.40;4.80;;;;;;;;;;4993596;28;20118;-80
2023/06/20 06:27:12;;;;;;;9.05;5.65;;;;;;;;;;5010651;28;20036;-80
2023/06/20 06:29:39;;;;;;;8.82;5.05;;;;;;;;;;5010939;28;20186;-80
2023/06/20 06:32:05;;;;;;;8.80;4.93;;;;;;;;;;5002480;28;20034;-80
2023/06/20 06:34:32;;;;;;;11.00;5.65;;;;;;;;;;5010852;28;20125;-80
2023/06/20 06:36:58;;;;;;;8.02;5.35;;;;;;;;;;5010424;28;20018;-80
2023/06/20 06:39:25;;;;;;;7.60;5.10;;;;;;;;;;5010527;28;20121;-81
2023/06/20 06:41:51;;;;;;;6.90;4.78;;;;;;;;;;4985806;28;20081;-80
2023/06/20 06:44:17;;;;;;;7.97;4.82;;;;;;;;;;5010380;28;20034;-80
2023/06/20 06:46:43;;;;;;;6.57;4.75;;;;;;;;;;5010719;28;20109;-81
2023/06/20 06:49:09;;;;;;;8.20;4.72;;;;;;;;;;5000908;28;20042;-81
2023/06/20 06:51:36;;;;;;;6.25;4.57;;;;;;;;;;4992379;28;20435;-80
2023/06/20 06:54:02;;;;;;;7.38;4.43;;;;;;;;;;5005290;28;20891;-80
2023/06/20 06:56:28;;;;;;;8.82;4.82;;;;;;;;;;5010143;28;20030;-81
2023/06/20 06:58:57;;;;;;;7.47;4.68;;;;;;;;;;5010092;28;20124;-80
2023/06/20 07:01:23;;;;;;;7.30;4.70;;;;;;;;;;5010228;28;20030;-82
2023/06/20 07:03:49;;;;;;;6.35;4.65;;;;;;;;;;5008421;28;20505;-81
2023/06/20 07:06:15;;;;;;;7.72;4.97;;;;;;;;;;4995714;28;20053;-82
2023/06/20 07:08:41;;;;;;;7.05;5.18;;;;;;;;;;4978312;28;20033;-81
2023/06/20 07:11:07;;;;;;;7.57;4.55;;;;;;;;;;5009616;28;20030;-80
2023/06/20 07:13:36;;;;;;;5.70;4.22;;;;;;;;;;5006065;28;20547;-83
2023/06/20 07:16:02;;;;;;;7.30;4.97;;;;;;;;;;4993628;28;20456;-78
2023/06/20 07:18:28;;;;;;;8.15;4.57;;;;;;;;;;5009699;28;20010;-78
2023/06/20 07:20:57;;;;;;;6.47;4.13;;;;;;;;;;5009613;28;20029;-78
2023/06/20 07:23:22;;;;;;;6.45;4.50;;;;;;;;;;5009403;28;20385;-78
2023/06/20 07:25:48;;;;;;;6.63;4.75;;;;;;;;;;5006154;28;20014;-78
2023/06/20 07:28:14;;;;;;;6.97;4.25;;;;;;;;;;5009705;28;20025;-78
2023/06/20 07:30:40;;;;;;;9.80;4.60;;;;;;;;;;5007975;28;20432;-78
2023/06/20 07:33:06;;;;;;;6.25;4.30;;;;;;;;;;4999735;28;20104;-78
2023/06/20 07:35:33;;;;;;;6.95;4.50;;;;;;;;;;5009521;28;20370;-79
2023/06/20 07:37:59;;;;;;;7.05;4.80;;;;;;;;;;5009151;28;20029;-79
2023/06/20 07:40:25;;;;;;;8.18;4.70;;;;;;;;;;5009377;28;20374;-77
2023/06/20 07:42:54;;;;;;;5.57;4.10;;;;;;;;;;5007782;28;20076;-83
2023/06/20 07:45:20;;;;;;;7.50;4.60;;;;;;;;;;5009267;28;20048;-78
2023/06/20 07:47:45;;;;;;;6.90;4.70;;;;;;;;;;4998265;28;20030;-78
2023/06/20 07:50:11;;;;;;;9.88;5.65;;;;;;;;;;5008924;28;20401;-78
2023/06/20 07:52:40;;;;;;;15.75;6.30;;;;;;;;;;5007394;28;20037;-78
2023/06/20 07:55:06;;;;;;;11.20;6.20;;;;;;;;;;5008864;28;20603;-78
2023/06/20 07:57:32;;;;;;;9.70;5.70;;;;;;;;;;5009058;28;20388;-78
2023/06/20 07:59:58;;;;;;;14.82;7.10;;;;;;;;;;5006686;28;20109;-79
2023/06/20 08:02:24;;;;;;;10.07;6.35;;;;;;;;;;4992678;28;20577;-78
2023/06/20 08:04:50;;;;;;;10.63;7.18;;;;;;;;;;4992410;28;20060;-79
2023/06/20 08:07:16;;;;;;;10.27;7.03;;;;;;;;;;4991719;28;20501;-78
2023/06/20 08:09:43;;;;;;;10.57;7.07;;;;;;;;;;5002124;28;20117;-78
2023/06/20 08:12:10;;;;;;;15.05;7.68;;;;;;;;;;4994397;28;20061;-81
2023/06/20 08:14:37;;;;;;;11.52;7.65;;;;;;;;;;4990672;28;20122;-88
2023/06/20 08:17:03;;;;;;;11.93;7.65;;;;;;;;;;4997045;28;20127;-79
2023/06/20 08:19:29;;;;;;;12.65;7.63;;;;;;;;;;4998525;28;20088;-76
2023/06/20 08:21:55;;;;;;;12.07;7.40;;;;;;;;;;5002424;28;20010;-84
2023/06/20 08:24:21;;;;;;;12.23;7.47;;;;;;;;;;5000743;28;20612;-77
2023/06/20 08:26:47;;;;;;;12.38;7.80;;;;;;;;;;5001906;28;20026;-77
2023/06/20 08:29:13;;;;;;;13.73;7.82;;;;;;;;;;4994253;28;20030;-76
2023/06/20 08:31:39;;;;;;;11.82;7.68;;;;;;;;;;5005470;28;20046;-76
2023/06/20 08:34:05;;;;;;;12.35;7.80;;;;;;;;;;5008354;28;20072;-77
2023/06/20 08:36:34;;;;;;;17.58;9.23;;;;;;;;;;5006579;28;20040;-77
2023/06/20 08:39:01;;;;;;;12.75;7.78;;;;;;;;;;5004394;28;20034;-76
2023/06/20 08:41:27;;;;;;;11.73;7.53;;;;;;;;;;4993746;28;20026;-77
2023/06/20 08:43:53;;;;;;;12.80;7.88;;;;;;;;;;5007495;28;20672;-76
2023/06/20 08:46:20;;;;;;;11.82;8.18;;;;;;;;;;5008744;28;20113;-76
2023/06/20 08:48:49;;;;;;;12.82;8.38;;;;;;;;;;4997386;28;20052;-81
2023/06/20 08:51:18;;;;;;;13.85;8.15;;;;;;;;;;5006383;28;20022;-83
2023/06/20 08:53:48;;;;;;;17.45;9.23;;;;;;;;;;5008413;28;20054;-82
2023/06/20 08:56:18;;;;;;;10.32;6.97;;;;;;;;;;5001160;28;20033;-83
2023/06/20 08:58:47;;;;;;;14.40;8.57;;;;;;;;;;4990827;28;20026;-82
2023/06/20 09:01:13;;;;;;;12.63;8.20;;;;;;;;;;5008050;28;20025;-80
2023/06/20 09:03:40;;;;;;;16.33;7.53;;;;;;;;;;5008621;28;20106;-80
2023/06/20 09:06:06;;;;;;;13.13;7.97;;;;;;;;;;5006046;28;20116;-80
2023/06/20 09:08:36;;;;;;;13.27;8.05;;;;;;;;;;5008367;28;20029;-79
2023/06/20 09:11:06;;;;;;;13.48;8.30;;;;;;;;;;4999995;28;20022;-85
2023/06/20 09:13:32;;;;;;;12.25;8.27;;;;;;;;;;4989179;28;20390;-87
2023/06/20 09:16:05;;;;;;;12.85;8.57;;;;;;;;;;5001584;28;20081;-84
2023/06/20 09:18:33;;;;;;;17.15;9.30;;;;;;;;;;4995833;28;20014;-84
2023/06/20 09:20:59;;;;;;;16.55;8.90;;;;;;;;;;4997666;28;20036;-84
2023/06/20 09:23:29;;;;;;;15.55;9.27;;;;;;;;;;5006309;28;20033;-83
2023/06/20 09:25:56;;;;;;;15.88;9.60;;;;;;;;;;5011990;28;20125;-84
2023/06/20 09:28:22;;;;;;;13.50;9.10;;;;;;;;;;4995176;28;20018;-82
2023/06/20 09:30:48;;;;;;;19.60;9.02;;;;;;;;;;5002222;28;20487;-83
2023/06/20 09:33:15;;;;;;;14.65;8.68;;;;;;;;;;4995659;28;20030;-85
2023/06/20 09:35:41;;;;;;;14.27;8.75;;;;;;;;;;5002035;28;20464;-82
2023/06/20 09:38:07;;;;;;;13.52;8.77;;;;;;;;;;4997553;28;20030;-84
2023/06/20 09:40:42;;;;;;;13.15;8.65;;;;;;;;;;5008844;28;20096;-83
2023/06/20 09:43:09;;;;;;;11.85;7.78;;;;;;;;;;4999528;28;20485;-84
2023/06/20 09:45:35;;;;;;;12.85;8.20;;;;;;;;;;5002377;28;20045;-84
2023/06/20 09:48:01;;;;;;;13.70;8.88;;;;;;;;;;4986433;28;20030;-85
2023/06/20 09:50:28;;;;;;;12.55;8.43;;;;;;;;;;4999975;28;20060;-84
2023/06/20 09:53:06;;;;;;;12.43;8.15;;;;;;;;;;4994082;28;20485;-84
2023/06/20 09:55:35;;;;;;;16.13;9.35;;;;;;;;;;4984655;28;20110;-86
2023/06/20 09:58:02;;;;;;;14.68;8.95;;;;;;;;;;5002800;28;20037;-86
2023/06/20 10:00:28;;;;;;;16.95;9.13;;;;;;;;;;5002048;28;20039;-87
2023/06/20 10:02:58;;;;;;;19.38;8.95;;;;;;;;;;4996683;28;20026;-90
2023/06/20 10:05:25;;;;;;;16.90;9.52;;;;;;;;;;5000310;28;20050;-87
2023/06/20 10:07:51;;;;;;;14.68;8.13;;;;;;;;;;4997292;28;20037;-86
2023/06/20 10:10:18;;;;;;;15.10;8.68;;;;;;;;;;4998995;28;20403;-89
2023/06/20 10:12:48;;;;;;;14.90;8.40;;;;;;;;;;5009763;28;20025;-89
2023/06/20 10:15:14;;;;;;;13.77;8.52;;;;;;;;;;5012559;28;20022;-88
2023/06/20 10:17:41;;;;;;;17.35;8.60;;;;;;;;;;4999600;28;20105;-88
2023/06/20 10:20:08;;;;;;;15.18;9.00;;;;;;;;;;4994817;28;20055;-88
2023/06/20 10:22:34;;;;;;;11.80;8.07;;;;;;;;;;5006839;28;20088;-86
2023/06/20 10:25:14;;;;;;;13.85;8.13;;;;;;;;;;4993392;28;20423;-89
2023/06/20 10:28:00;;;;;;;11.43;7.35;;;;;;;;;;5009287;28;20061;-89
2023/06/20 10:30:56;;;;;;;13.20;7.95;;;;;;;;;;4991561;28;20095;-88
2023/06/20 10:33:45;;;;;;;12.50;7.80;;;;;;;;;;5002647;28;20397;-88
2023/06/20 10:36:12;;;;;;;14.48;7.93;;;;;;;;;;4996284;28;20029;-88
2023/06/20 10:38:55;;;;;;;13.23;7.75;;;;;;;;;;4994440;28;20118;-89
2023/06/20 10:41:21;;;;;;;11.15;6.60;;;;;;;;;;4996749;28;20022;-88
2023/06/20 10:43:47;;;;;;;12.52;7.93;;;;;;;;;;5003011;28;20032;-88
2023/06/20 10:46:13;;;;;;;12.60;7.03;;;;;;;;;;5019153;28;20026;-89
2023/06/20 10:48:39;;;;;;;11.73;7.00;;;;;;;;;;5001945;28;20563;-84
2023/06/20 10:51:05;;;;;;;11.23;6.85;;;;;;;;;;5004654;28;20037;-82
2023/06/20 10:53:35;;;;;;;11.68;7.07;;;;;;;;;;5005165;28;20026;-82
2023/06/20 10:56:01;;;;;;;19.52;7.95;;;;;;;;;;4992231;28;20026;-83
2023/06/20 10:58:27;;;;;;;12.00;7.78;;;;;;;;;;5008394;28;20076;-82
2023/06/20 11:00:54;;;;;;;11.95;7.32;;;;;;;;;;4995161;28;20022;-82
2023/06/20 11:03:21;;;;;;;9.45;6.57;;;;;;;;;;5022245;28;20030;-82
2023/06/20 11:05:51;;;;;;;10.98;6.82;;;;;;;;;;5009245;28;20045;-82
2023/06/20 11:08:26;;;;;;;12.10;7.38;;;;;;;;;;4993607;28;20469;-82
2023/06/20 11:10:53;;;;;;;13.10;6.85;;;;;;;;;;4996589;28;20117;-82
2023/06/20 11:13:20;;;;;;;8.88;6.20;;;;;;;;;;5001073;28;20146;-82
2023/06/20 11:15:46;;;;;;;11.77;6.88;;;;;;;;;;5009490;28;20065;-82
2023/06/20 11:18:12;;;;;;;9.80;6.75;;;;;;;;;;5001218;28;20022;-82
2023/06/20 11:20:41;;;;;;;10.98;6.80;;;;;;;;;;4989428;28;20802;-83
2023/06/20 11:23:08;;;;;;;10.27;6.57;;;;;;;;;;4990357;28;20030;-82
2023/06/20 11:25:37;;;;;;;10.57;6.88;;;;;;;;;;5004346;28;20026;-82
2023/06/20 11:28:04;;;;;;;11.75;6.78;;;;;;;;;;5006993;28;20499;-82
2023/06/20 11:30:31;;;;;;;11.70;6.53;;;;;;;;;;5005429;28;20677;-82
2023/06/20 11:33:01;;;;;;;10.40;6.65;;;;;;;;;;4995989;28;20047;-82
2023/06/20 11:35:39;;;;;;;11.25;6.82;;;;;;;;;;5008775;28;20120;-82
2023/06/20 11:38:06;;;;;;;10.32;6.40;;;;;;;;;;5009088;28;20164;-82
2023/06/20 11:40:32;;;;;;;12.50;6.50;;;;;;;;;;5009026;28;20025;-82
2023/06/20 11:43:00;;;;;;;9.90;6.05;;;;;;;;;;4999734;28;20431;-82
2023/06/20 11:45:27;;;;;;;11.52;6.78;;;;;;;;;;5008764;28;20065;-82
2023/06/20 11:48:13;;;;;;;10.20;6.00;;;;;;;;;;4997860;28;20072;-82
2023/06/20 11:50:43;;;;;;;10.85;6.03;;;;;;;;;;4988687;28;20299;-81
2023/06/20 11:53:19;;;;;;;9.38;6.25;;;;;;;;;;4989736;28;20758;-82
2023/06/20 11:55:55;;;;;;;9.20;6.25;;;;;;;;;;5004207;28;20041;-82
2023/06/20 11:58:21;;;;;;;9.38;6.15;;;;;;;;;;5008561;28;20385;-82
2023/06/20 12:00:58;;;;;;;9.32;5.70;;;;;;;;;;5008820;28;20025;-81
2023/06/20 12:03:25;;;;;;;10.63;5.93;;;;;;;;;;5021593;28;20025;-83
2023/06/20 12:05:51;;;;;;;10.15;5.93;;;;;;;;;;4992094;28;20050;-82
2023/06/20 12:08:17;;;;;;;9.65;6.15;;;;;;;;;;5008505;28;20057;-82
2023/06/20 12:11:00;;;;;;;11.52;5.75;;;;;;;;;;4994753;28;20354;-81
2023/06/20 12:13:26;;;;;;;9.77;5.90;;;;;;;;;;5002303;28;20034;-81
2023/06/20 12:15:52;;;;;;;11.13;6.15;;;;;;;;;;5005183;28;20021;-81
2023/06/20 12:18:18;;;;;;;8.43;5.72;;;;;;;;;;4996772;28;20060;-83
2023/06/20 12:20:45;;;;;;;7.97;5.43;;;;;;;;;;5008579;28;20041;-82
2023/06/20 12:23:11;;;;;;;10.00;6.15;;;;;;;;;;5008248;28;20026;-81
2023/06/20 12:25:37;;;;;;;10.65;5.95;;;;;;;;;;5004692;28;20034;-82
2023/06/20 12:28:03;;;;;;;10.15;6.10;;;;;;;;;;4994785;28;20026;-82
2023/06/20 12:30:30;;;;;;;10.25;5.88;;;;;;;;;;5016446;28;20029;-82
2023/06/20 12:32:58;;;;;;;11.38;5.60;;;;;;;;;;4998735;28;20026;-82
2023/06/20 12:35:25;;;;;;;10.00;6.10;;;;;;;;;;4999436;28;20079;-81
2023/06/20 12:37:51;;;;;;;9.27;5.97;;;;;;;;;;5007613;28;20078;-83
2023/06/20 12:40:20;;;;;;;10.88;6.00;;;;;;;;;;5002393;28;20022;-82
2023/06/20 12:42:48;;;;;;;8.55;5.60;;;;;;;;;;5004539;28;20500;-81
2023/06/20 12:45:14;;;;;;;7.90;5.25;;;;;;;;;;4996545;28;20041;-82
2023/06/20 12:47:40;;;;;;;8.45;5.47;;;;;;;;;;5020819;28;20087;-81
2023/06/20 12:50:07;;;;;;;9.23;6.20;;;;;;;;;;5002737;28;20088;-84
2023/06/20 12:52:34;;;;;;;7.85;5.88;;;;;;;;;;5006778;28;20122;-87
2023/06/20 12:55:00;;;;;;;9.98;6.07;;;;;;;;;;4991487;28;20544;-87
2023/06/20 12:57:29;;;;;;;8.52;5.88;;;;;;;;;;4987317;28;20014;-86
2023/06/20 12:59:55;;;;;;;10.05;5.85;;;;;;;;;;5006221;28;20071;-83
2023/06/20 13:02:23;;;;;;;7.80;5.93;;;;;;;;;;5009809;28;20036;-81
2023/06/20 13:04:51;;;;;;;8.10;5.45;;;;;;;;;;5007553;28;20073;-81
2023/06/20 13:07:18;;;;;;;7.93;5.22;;;;;;;;;;5022491;28;20039;-81
2023/06/20 13:09:45;;;;;;;9.00;5.43;;;;;;;;;;4987754;28;21104;-82
2023/06/20 13:12:35;;;;;;;11.57;5.43;;;;;;;;;;5002940;28;20033;-85
2023/06/20 13:15:02;;;;;;;8.55;5.60;;;;;;;;;;5005126;28;20389;-83
2023/06/20 13:17:28;;;;;;;7.88;5.07;;;;;;;;;;5007410;28;20472;-84
2023/06/20 13:19:55;;;;;;;8.60;5.70;;;;;;;;;;5005238;28;20018;-83
2023/06/20 13:22:22;;;;;;;7.82;5.22;;;;;;;;;;5008518;28;20504;-84
2023/06/20 13:24:48;;;;;;;8.38;5.03;;;;;;;;;;5006618;28;20064;-83
2023/06/20 13:27:14;;;;;;;8.07;5.65;;;;;;;;;;5008059;28;20030;-84
2023/06/20 13:29:41;;;;;;;8.40;5.68;;;;;;;;;;5007938;28;20084;-86
2023/06/20 13:32:07;;;;;;;8.38;5.45;;;;;;;;;;5011164;28;20071;-83
2023/06/20 13:34:33;;;;;;;10.02;5.80;;;;;;;;;;5013217;28;20447;-86
2023/06/20 13:36:59;;;;;;;11.38;5.43;;;;;;;;;;5005868;28;20026;-90
2023/06/20 13:39:29;;;;;;;10.85;6.00;;;;;;;;;;5006363;28;20135;-81
2023/06/20 13:41:56;;;;;;;9.88;6.10;;;;;;;;;;5009480;28;20112;-81
2023/06/20 13:44:22;;;;;;;9.35;5.65;;;;;;;;;;5000746;28;20041;-75
2023/06/20 13:46:48;;;;;;;9.32;5.28;;;;;;;;;;4995361;28;20042;-83
2023/06/20 13:49:14;;;;;;;8.90;5.65;;;;;;;;;;5001857;28;20034;-83
2023/06/20 13:51:40;;;;;;;6.75;5.00;;;;;;;;;;5016716;28;20033;-81
2023/06/20 13:54:06;;;;;;;7.63;5.32;;;;;;;;;;5012393;28;20025;-79
2023/06/20 13:56:33;;;;;;;8.25;5.35;;;;;;;;;;5003023;28;20160;-83
2023/06/20 13:58:59;;;;;;;9.77;5.82;;;;;;;;;;5008374;28;20096;-80
2023/06/20 14:01:25;;;;;;;6.07;4.63;;;;;;;;;;4998604;28;20026;-82
2023/06/20 14:03:51;;;;;;;7.97;5.43;;;;;;;;;;4998850;28;20027;-83
2023/06/20 14:06:17;;;;;;;8.02;5.47;;;;;;;;;;5014270;28;20092;-83
2023/06/20 14:08:44;;;;;;;10.15;5.40;;;;;;;;;;5007639;28;20035;-85
2023/06/20 14:11:10;;;;;;;10.10;5.65;;;;;;;;;;5009549;28;20037;-87
2023/06/20 14:13:36;;;;;;;9.10;5.65;;;;;;;;;;5010363;28;20025;-86
2023/06/20 14:16:06;;;;;;;8.35;5.10;;;;;;;;;;4996812;28;20489;-78
2023/06/20 14:18:32;;;;;;;8.90;5.95;;;;;;;;;;5012269;28;20038;-79
2023/06/20 14:20:58;;;;;;;7.47;5.10;;;;;;;;;;5014896;28;20531;-79
2023/06/20 14:23:25;;;;;;;8.57;5.22;;;;;;;;;;5000250;28;20548;-79
2023/06/20 14:25:51;;;;;;;7.63;4.90;;;;;;;;;;5004189;28;20033;-81
2023/06/20 14:28:19;;;;;;;9.50;5.30;;;;;;;;;;5010145;28;20400;-80
2023/06/20 14:30:47;;;;;;;7.50;5.40;;;;;;;;;;5002841;28;20036;-80
2023/06/20 14:33:13;;;;;;;8.15;5.38;;;;;;;;;;5002082;28;20030;-81
2023/06/20 14:35:41;;;;;;;8.40;5.60;;;;;;;;;;4998059;28;20030;-79
2023/06/20 14:38:07;;;;;;;7.40;5.30;;;;;;;;;;4998386;28;20152;-80
2023/06/20 14:40:35;;;;;;;8.63;4.90;;;;;;;;;;5015955;28;20100;-81
2023/06/20 14:45:56;;;;;;;8.32;5.43;;;;;;;;;;4982998;28;20038;-83